This is the latest recevied weather packets stored in our database for station/object E27IHO-13. If no packets are shown the sender has not sent any weather packets the latest 10 day(s).
| Time | Temp. | Humidity | Pressure | Rain* | Wind** | Luminosity | Snow |
|---|---|---|---|---|---|---|---|
| 1777427683 | 35° C | 56% | 1011 hPa | - | - | 0 W/m² | - |
| 1777427361 | 34.44° C | 59% | 1011 hPa | - | - | 0 W/m² | - |
| 1777427041 | 34.44° C | 59% | 1010 hPa | - | - | 0 W/m² | - |
| 1777426717 | 34.44° C | 59% | 1010 hPa | - | - | 0 W/m² | - |
| 1777426395 | 33.89° C | 60% | 1010 hPa | - | - | 0 W/m² | - |
| 1777426073 | 33.89° C | 60% | 1010 hPa | - | - | 0 W/m² | - |
| 1777425751 | 33.89° C | 62% | 1010 hPa | - | - | 0 W/m² | - |
| 1777425428 | 33.33° C | 62% | 1010 hPa | - | - | 0 W/m² | - |
| 1777425106 | 33.89° C | 61% | 1010 hPa | - | - | 0 W/m² | - |
| 1777424785 | 33.89° C | 62% | 1010 hPa | - | - | 0 W/m² | - |
| 1777424463 | 32.78° C | 64% | 1010 hPa | - | - | 0 W/m² | - |
| 1777424140 | 33.33° C | 64% | 1010 hPa | - | - | 0 W/m² | - |
| 1777423819 | 32.78° C | 64% | 1010 hPa | - | - | 0 W/m² | - |
| 1777422695 | 36.11° C | 54% | 1010 hPa | - | - | 0 W/m² | - |
| 1777422372 | 38.33° C | 48% | 1010 hPa | - | - | 0 W/m² | - |
| 1777422051 | 39.44° C | 45% | 1010 hPa | - | - | 0 W/m² | - |
| 1777421728 | 38.33° C | 48% | 1009 hPa | - | - | 0 W/m² | - |
| 1777421407 | 37.78° C | 49% | 1009 hPa | - | - | 0 W/m² | - |
| 1777421085 | 37.22° C | 52% | 1009 hPa | - | - | 0 W/m² | - |
| 1777420762 | 36.11° C | 56% | 1009 hPa | - | - | 0 W/m² | - |
| 1777420440 | 31.67° C | 71% | 1009 hPa | - | - | 0 W/m² | - |
| 1777420119 | 31.67° C | 70% | 1009 hPa | - | - | 0 W/m² | - |
| 1777419796 | 31.67° C | 69% | 1009 hPa | - | - | 0 W/m² | - |
| 1777419474 | 31.11° C | 70% | 1009 hPa | - | - | 0 W/m² | - |
| 1777419152 | 32.22° C | 66% | 1009 hPa | - | - | 0 W/m² | - |
* Rain since midnight (hover to see other rain measurements)
** Current wind speed in m/s (hover to see current wind gust speed)